createdAt,value
2018-06-20T00:02:10.901Z,6.03
2018-06-20T00:04:39.154Z,6.77
2018-06-20T00:07:07.337Z,7.80
2018-06-20T00:09:35.541Z,7.30
2018-06-20T00:12:03.722Z,5.90
2018-06-20T00:14:31.934Z,7.10
2018-06-20T00:17:00.144Z,7.23
2018-06-20T00:19:28.134Z,6.97
2018-06-20T00:21:56.354Z,6.97
2018-06-20T00:24:24.541Z,7.10
2018-06-20T00:26:52.757Z,7.50
2018-06-20T00:29:20.950Z,7.10
2018-06-20T00:31:49.147Z,7.40
2018-06-20T00:34:17.345Z,7.60
2018-06-20T00:36:45.543Z,7.10
2018-06-20T00:39:13.798Z,7.37
2018-06-20T00:41:42.237Z,7.00
2018-06-20T00:44:10.533Z,6.80
2018-06-20T00:46:38.778Z,7.27
2018-06-20T00:49:07.006Z,7.23
2018-06-20T00:51:35.234Z,7.03
2018-06-20T00:54:03.465Z,7.33
2018-06-20T00:56:31.674Z,7.20
2018-06-20T00:58:59.897Z,7.37
2018-06-20T01:01:28.138Z,7.37
2018-06-20T01:03:56.657Z,7.90
2018-06-20T01:06:24.889Z,7.87
2018-06-20T01:08:54.087Z,7.83
2018-06-20T01:11:22.393Z,7.27
2018-06-20T01:13:50.683Z,7.47
2018-06-20T01:16:18.913Z,7.20
2018-06-20T01:18:47.382Z,8.37
2018-06-20T01:21:15.890Z,8.50
2018-06-20T01:23:44.306Z,7.40
2018-06-20T01:26:12.774Z,7.13
2018-06-20T01:28:40.986Z,7.50
2018-06-20T01:31:09.278Z,7.87
2018-06-20T01:33:37.512Z,6.93
2018-06-20T01:36:05.865Z,7.60
2018-06-20T01:38:34.091Z,7.10
2018-06-20T01:41:02.309Z,7.03
2018-06-20T01:43:30.538Z,7.07
2018-06-20T01:45:58.782Z,7.43
2018-06-20T01:48:27.034Z,7.40
2018-06-20T01:50:55.962Z,6.90
2018-06-20T01:53:24.201Z,6.37
2018-06-20T01:55:52.573Z,8.20
2018-06-20T01:58:21.335Z,7.10
2018-06-20T02:00:49.616Z,7.77
2018-06-20T02:03:17.846Z,6.97
2018-06-20T02:05:46.075Z,7.30
2018-06-20T02:08:14.498Z,7.63
2018-06-20T02:10:42.731Z,7.20
2018-06-20T02:13:10.962Z,7.80
2018-06-20T02:15:39.186Z,7.53
2018-06-20T02:18:07.433Z,7.80
2018-06-20T02:20:35.657Z,7.03
2018-06-20T02:23:03.911Z,6.50
2018-06-20T02:25:32.142Z,7.20
2018-06-20T02:28:00.110Z,6.87
2018-06-20T02:30:28.385Z,7.90
2018-06-20T02:32:56.610Z,9.70
2018-06-20T02:35:24.800Z,6.83
2018-06-20T02:37:53.080Z,7.43
2018-06-20T02:40:21.315Z,8.53
2018-06-20T02:42:49.528Z,7.37
2018-06-20T02:45:17.807Z,7.20
2018-06-20T02:47:46.034Z,6.97
2018-06-20T02:50:14.578Z,6.53
2018-06-20T02:52:42.900Z,6.33
2018-06-20T02:55:11.092Z,6.80
2018-06-20T02:57:39.359Z,7.43
2018-06-20T03:00:07.603Z,6.50
2018-06-20T03:02:35.554Z,7.07
2018-06-20T03:05:03.842Z,7.97
2018-06-20T03:07:32.070Z,7.80
2018-06-20T03:10:00.265Z,7.60
2018-06-20T03:12:28.478Z,8.60
2018-06-20T03:14:56.750Z,8.47
2018-06-20T03:17:24.969Z,7.67
2018-06-20T03:19:53.165Z,8.07
2018-06-20T03:22:21.426Z,7.40
2018-06-20T03:24:49.625Z,8.17
2018-06-20T03:27:17.935Z,8.00
2018-06-20T03:29:46.146Z,7.57
2018-06-20T03:32:14.358Z,7.33
2018-06-20T03:34:42.566Z,7.60
2018-06-20T03:37:10.970Z,7.07
2018-06-20T03:39:39.189Z,7.37
2018-06-20T03:42:07.455Z,7.40
2018-06-20T03:44:35.705Z,8.93
2018-06-20T03:47:04.110Z,8.23
2018-06-20T03:49:32.378Z,8.17
2018-06-20T03:52:00.606Z,7.93
2018-06-20T03:54:28.842Z,8.67
2018-06-20T03:56:57.071Z,8.07
2018-06-20T03:59:25.389Z,8.73
2018-06-20T04:01:54.025Z,9.60
2018-06-20T04:04:22.257Z,9.10
2018-06-20T04:06:50.487Z,8.97
2018-06-20T04:09:18.705Z,9.27
2018-06-20T04:11:46.944Z,8.30
2018-06-20T04:14:15.149Z,8.47
2018-06-20T04:16:43.412Z,7.83
2018-06-20T04:19:11.626Z,9.03
2018-06-20T04:21:39.903Z,9.50
2018-06-20T04:24:08.085Z,8.77
2018-06-20T04:26:36.306Z,8.43
2018-06-20T04:29:04.529Z,7.97
2018-06-20T04:31:32.766Z,8.47
2018-06-20T04:34:00.992Z,7.67
2018-06-20T04:36:29.230Z,8.50
2018-06-20T04:38:57.490Z,8.43
2018-06-20T04:41:25.713Z,9.57
2018-06-20T04:43:54.077Z,9.77
2018-06-20T04:46:22.318Z,8.17
2018-06-20T04:48:50.537Z,8.33
2018-06-20T04:51:18.762Z,9.40
2018-06-20T04:53:47.031Z,8.60
2018-06-20T04:56:15.277Z,8.23
2018-06-20T04:58:43.280Z,8.10
2018-06-20T05:01:11.490Z,8.67
2018-06-20T05:03:39.798Z,9.00
2018-06-20T05:06:08.251Z,8.40
2018-06-20T05:08:36.505Z,9.70
2018-06-20T05:11:04.742Z,8.50
2018-06-20T05:13:33.153Z,11.27
2018-06-20T05:16:01.381Z,10.00
2018-06-20T05:18:29.357Z,9.30
2018-06-20T05:20:57.625Z,12.17
2018-06-20T05:23:26.298Z,9.77
2018-06-20T05:25:54.532Z,7.60
2018-06-20T05:28:23.106Z,8.70
2018-06-20T05:30:52.346Z,8.10
2018-06-20T05:33:21.331Z,6.60
2018-06-20T05:35:49.686Z,9.20
2018-06-20T05:38:18.157Z,7.27
2018-06-20T05:40:47.318Z,7.50
2018-06-20T05:43:15.257Z,8.67
2018-06-20T05:45:43.550Z,8.30
2018-06-20T05:48:11.738Z,7.20
2018-06-20T05:50:39.962Z,8.00
2018-06-20T05:53:08.242Z,7.20
2018-06-20T05:55:36.416Z,7.00
2018-06-20T05:58:04.701Z,8.40
2018-06-20T06:00:32.906Z,7.00
2018-06-20T06:03:01.128Z,8.70
2018-06-20T06:05:29.318Z,8.77
2018-06-20T06:07:57.906Z,7.40
2018-06-20T06:10:26.397Z,7.10
2018-06-20T06:12:54.665Z,6.13
2018-06-20T06:15:22.895Z,7.43
2018-06-20T06:17:51.061Z,7.23
2018-06-20T06:20:19.273Z,6.70
2018-06-20T06:22:47.650Z,6.63
2018-06-20T06:25:16.459Z,6.20
2018-06-20T06:27:44.674Z,5.90
2018-06-20T06:30:12.617Z,6.03
2018-06-20T06:32:40.934Z,6.30
2018-06-20T06:35:09.207Z,5.93
2018-06-20T06:37:37.461Z,6.30
2018-06-20T06:40:05.606Z,5.83
2018-06-20T06:42:33.846Z,9.03
2018-06-20T06:45:02.046Z,6.90
2018-06-20T06:47:30.994Z,7.17
2018-06-20T06:49:59.283Z,6.07
2018-06-20T06:52:27.415Z,5.90
2018-06-20T06:54:55.665Z,6.10
2018-06-20T06:57:23.870Z,5.90
2018-06-20T06:59:52.126Z,6.07
2018-06-20T07:02:20.311Z,7.53
2018-06-20T07:04:48.531Z,5.30
2018-06-20T07:07:16.723Z,5.30
2018-06-20T07:09:45.871Z,4.50
2018-06-20T07:12:14.062Z,5.17
2018-06-20T07:14:42.319Z,6.77
2018-06-20T07:17:10.825Z,5.27
2018-06-20T07:19:39.042Z,5.43
2018-06-20T07:22:07.306Z,4.90
2018-06-20T07:24:35.527Z,4.50
2018-06-20T07:27:03.805Z,4.47
2018-06-20T07:29:32.031Z,4.77
2018-06-20T07:32:00.314Z,5.50
2018-06-20T07:34:28.600Z,4.73
2018-06-20T07:36:56.967Z,4.33
2018-06-20T07:39:25.274Z,4.27
2018-06-20T07:41:53.513Z,4.23
2018-06-20T07:44:21.797Z,3.93
2018-06-20T07:46:49.982Z,4.20
2018-06-20T07:49:18.186Z,4.17
2018-06-20T07:51:46.389Z,5.00
2018-06-20T07:54:14.578Z,3.63
2018-06-20T07:56:42.795Z,4.67
2018-06-20T07:59:13.774Z,4.37
2018-06-20T08:01:59.033Z,4.87
2018-06-20T08:04:32.393Z,4.53
2018-06-20T08:07:06.016Z,3.80
2018-06-20T08:09:41.080Z,3.70
2018-06-20T08:12:14.617Z,4.47
2018-06-20T08:14:48.285Z,4.53
2018-06-20T08:17:22.454Z,4.43
2018-06-20T08:19:54.294Z,3.63
2018-06-20T08:22:22.729Z,3.80
2018-06-20T08:24:58.438Z,3.90
2018-06-20T08:27:27.597Z,3.37
2018-06-20T08:29:55.804Z,3.63
2018-06-20T08:32:24.077Z,3.63
2018-06-20T08:34:53.238Z,2.87
2018-06-20T08:37:21.463Z,3.30
2018-06-20T08:39:49.673Z,3.03
2018-06-20T08:42:17.884Z,3.30
2018-06-20T08:44:46.137Z,3.33
2018-06-20T08:47:14.902Z,2.70
2018-06-20T08:49:43.134Z,3.10
2018-06-20T08:52:11.325Z,3.17
2018-06-20T08:54:39.521Z,2.63
2018-06-20T08:57:07.741Z,3.47
2018-06-20T08:59:35.954Z,2.93
2018-06-20T09:02:04.233Z,2.97
2018-06-20T09:04:37.893Z,3.00
2018-06-20T09:07:11.419Z,2.90
2018-06-20T09:09:44.988Z,3.30
2018-06-20T09:12:18.617Z,3.40
2018-06-20T09:14:52.255Z,3.27
2018-06-20T09:17:25.761Z,3.00
2018-06-20T09:19:55.077Z,2.67
2018-06-20T09:22:23.295Z,2.50
2018-06-20T09:24:51.793Z,2.93
2018-06-20T09:27:19.990Z,2.80
2018-06-20T09:29:48.178Z,3.70
2018-06-20T09:32:16.156Z,2.80
2018-06-20T09:34:44.990Z,2.07
2018-06-20T09:37:13.207Z,2.40
2018-06-20T09:39:41.486Z,2.43
2018-06-20T09:42:09.634Z,3.23
2018-06-20T09:44:37.957Z,3.30
2018-06-20T09:47:06.451Z,3.30
2018-06-20T09:49:34.733Z,2.30
2018-06-20T09:52:02.950Z,2.63
2018-06-20T09:54:31.202Z,2.80
2018-06-20T09:56:59.430Z,2.63
2018-06-20T09:59:32.893Z,2.67
2018-06-20T10:02:06.402Z,2.83
2018-06-20T10:04:40.289Z,2.73
2018-06-20T10:07:18.976Z,2.63
2018-06-20T10:09:56.537Z,2.53
2018-06-20T10:12:30.051Z,2.90
2018-06-20T10:14:58.295Z,3.30
2018-06-20T10:17:26.538Z,3.33
2018-06-20T10:19:54.765Z,3.30
2018-06-20T10:22:22.990Z,3.00
2018-06-20T10:24:51.189Z,3.20
2018-06-20T10:27:20.282Z,3.03
2018-06-20T10:29:48.485Z,3.33
2018-06-20T10:32:17.682Z,2.47
2018-06-20T10:34:45.890Z,3.07
2018-06-20T10:37:14.098Z,2.87
2018-06-20T10:39:42.309Z,3.40
2018-06-20T10:42:10.498Z,2.93
2018-06-20T10:44:38.712Z,2.97
2018-06-20T10:47:13.286Z,3.10
2018-06-20T10:49:41.494Z,3.23
2018-06-20T10:52:09.700Z,3.33
2018-06-20T10:54:37.922Z,3.10
2018-06-20T10:57:11.577Z,2.83
2018-06-20T10:59:45.241Z,3.43
2018-06-20T11:02:18.772Z,2.70
2018-06-20T11:04:52.258Z,2.60
2018-06-20T11:07:26.057Z,3.47
2018-06-20T11:09:59.626Z,3.17
2018-06-20T11:12:33.160Z,3.00
2018-06-20T11:15:01.339Z,3.10
2018-06-20T11:17:29.554Z,2.80
2018-06-20T11:20:01.990Z,3.40
2018-06-20T11:22:30.221Z,3.20
2018-06-20T11:24:58.435Z,3.77
2018-06-20T11:27:26.875Z,3.13
2018-06-20T11:29:55.104Z,2.80
2018-06-20T11:32:23.340Z,2.23
2018-06-20T11:34:51.590Z,2.90
2018-06-20T11:37:19.838Z,2.03
2018-06-20T11:39:48.078Z,2.80
2018-06-20T11:42:16.307Z,2.10
2018-06-20T11:44:44.754Z,2.27
2018-06-20T11:47:46.770Z,3.00
2018-06-20T11:50:15.001Z,2.13
2018-06-20T11:52:48.469Z,2.07
2018-06-20T11:55:38.312Z,2.90
2018-06-20T11:58:12.708Z,1.90
2018-06-20T12:00:46.283Z,2.73
2018-06-20T12:03:19.978Z,2.13
2018-06-20T12:05:53.710Z,2.57
2018-06-20T12:08:27.388Z,2.30
2018-06-20T12:11:00.946Z,2.10
2018-06-20T12:13:34.464Z,2.90
2018-06-20T12:16:08.034Z,3.00
2018-06-20T12:18:41.731Z,2.07
2018-06-20T12:21:15.422Z,2.47
2018-06-20T12:23:49.083Z,1.53
2018-06-20T12:26:22.520Z,2.20
2018-06-20T12:28:56.129Z,2.50
2018-06-20T12:31:29.835Z,2.03
2018-06-20T12:34:03.520Z,2.10
2018-06-20T12:36:37.709Z,1.77
2018-06-20T12:39:06.001Z,1.90
2018-06-20T12:41:39.559Z,2.03
2018-06-20T12:44:13.129Z,2.37
2018-06-20T12:47:45.701Z,1.83
2018-06-20T12:50:21.360Z,2.30
2018-06-20T12:52:50.239Z,1.80
2018-06-20T12:55:18.519Z,1.90
2018-06-20T12:57:47.450Z,3.00
2018-06-20T13:00:16.208Z,1.80
2018-06-20T13:02:45.295Z,2.07
2018-06-20T13:05:14.166Z,1.87
2018-06-20T13:07:42.995Z,2.17
2018-06-20T13:10:11.273Z,1.80
2018-06-20T13:12:39.703Z,2.20
2018-06-20T13:15:07.988Z,2.20
2018-06-20T13:17:36.265Z,2.13
2018-06-20T13:20:04.612Z,1.70
2018-06-20T13:22:32.829Z,2.27
2018-06-20T13:25:01.978Z,1.80
2018-06-20T13:27:35.875Z,2.00
2018-06-20T13:30:11.010Z,2.30
2018-06-20T13:32:44.511Z,2.47
2018-06-20T13:35:18.144Z,2.37
2018-06-20T13:37:51.567Z,2.10
2018-06-20T13:40:25.440Z,2.70
2018-06-20T13:42:58.870Z,2.50
2018-06-20T13:45:32.516Z,2.30
2018-06-20T13:48:06.137Z,1.90
2018-06-20T13:50:35.066Z,3.00
2018-06-20T13:53:03.380Z,1.80
2018-06-20T13:55:31.581Z,2.20
2018-06-20T13:57:59.811Z,1.63
2018-06-20T14:00:28.351Z,8.50
2018-06-20T14:02:56.708Z,1.93
2018-06-20T14:05:24.952Z,1.80
2018-06-20T14:07:53.169Z,1.50
2018-06-20T14:10:21.374Z,1.90
2018-06-20T14:12:49.778Z,2.00
2018-06-20T14:15:18.007Z,2.03
2018-06-20T14:17:46.437Z,1.90
2018-06-20T14:20:20.012Z,1.93
2018-06-20T14:22:48.251Z,1.90
2018-06-20T14:25:16.611Z,1.73
2018-06-20T14:27:46.168Z,2.23
2018-06-20T14:30:18.628Z,2.07
2018-06-20T14:32:52.166Z,2.10
2018-06-20T14:35:25.689Z,1.90
2018-06-20T14:37:59.292Z,1.70
2018-06-20T14:40:32.748Z,1.90
2018-06-20T14:43:02.899Z,2.00
2018-06-20T14:45:36.440Z,2.17
2018-06-20T14:48:04.699Z,2.20
2018-06-20T14:50:32.926Z,1.67
2018-06-20T14:53:01.296Z,1.73
2018-06-20T14:55:29.545Z,2.70
2018-06-20T14:57:58.177Z,2.13
2018-06-20T15:00:26.446Z,2.17
2018-06-20T15:02:55.649Z,1.80
2018-06-20T15:05:23.930Z,2.20
2018-06-20T15:07:52.541Z,1.73
2018-06-20T15:10:21.033Z,1.50
2018-06-20T15:12:49.303Z,1.80
2018-06-20T15:15:17.658Z,1.80
2018-06-20T15:17:45.879Z,2.00
2018-06-20T15:20:14.168Z,1.90
2018-06-20T15:22:48.034Z,2.10
2018-06-20T15:25:21.270Z,1.83
2018-06-20T15:27:55.116Z,1.90
2018-06-20T15:32:34.218Z,1.77
2018-06-20T15:35:07.722Z,4.40
2018-06-20T15:37:43.319Z,2.70
2018-06-20T15:40:11.452Z,1.90
2018-06-20T15:42:39.766Z,1.73
2018-06-20T15:45:07.734Z,1.87
2018-06-20T15:47:35.957Z,2.30
2018-06-20T15:50:04.482Z,2.07
2018-06-20T15:52:32.686Z,2.63
2018-06-20T15:55:00.962Z,2.00
2018-06-20T15:57:29.354Z,2.93
2018-06-20T15:59:57.577Z,2.13
2018-06-20T16:02:25.761Z,1.93
2018-06-20T16:04:53.970Z,2.50
2018-06-20T16:07:22.218Z,2.27
2018-06-20T16:09:56.301Z,1.97
2018-06-20T16:12:24.823Z,2.50
2018-06-20T16:14:53.414Z,2.93
2018-06-20T16:17:21.666Z,2.30
2018-06-20T16:19:55.457Z,2.57
2018-06-20T16:22:29.037Z,2.23
2018-06-20T16:25:02.830Z,2.60
2018-06-20T16:27:36.405Z,2.60
2018-06-20T16:30:09.949Z,2.03
2018-06-20T16:32:38.134Z,2.50
2018-06-20T16:35:06.335Z,2.67
2018-06-20T16:37:34.621Z,2.47
2018-06-20T16:40:02.967Z,2.20
2018-06-20T16:42:31.166Z,2.30
2018-06-20T16:44:59.372Z,4.43
2018-06-20T16:47:27.760Z,3.40
2018-06-20T16:49:55.978Z,2.30
2018-06-20T16:52:24.222Z,2.70
2018-06-20T16:54:52.414Z,2.17
2018-06-20T16:57:20.614Z,4.17
2018-06-20T16:59:48.905Z,2.83
2018-06-20T17:02:22.559Z,2.40
2018-06-20T17:04:50.741Z,2.60
2018-06-20T17:07:19.249Z,2.43
2018-06-20T17:09:48.232Z,2.70
2018-06-20T17:12:21.709Z,2.83
2018-06-20T17:14:55.333Z,2.43
2018-06-20T17:17:28.809Z,2.57
2018-06-20T17:20:02.476Z,2.53
2018-06-20T17:22:36.322Z,2.40
2018-06-20T17:25:09.995Z,2.70
2018-06-20T17:27:38.217Z,2.50
2018-06-20T17:30:06.914Z,3.07
2018-06-20T17:32:35.138Z,3.23
2018-06-20T17:35:03.429Z,2.90
2018-06-20T17:37:32.814Z,2.47
2018-06-20T17:40:01.062Z,3.63
2018-06-20T17:42:29.312Z,5.07
2018-06-20T17:44:57.556Z,4.00
2018-06-20T17:47:25.917Z,3.13
2018-06-20T17:49:54.386Z,3.30
2018-06-20T17:52:22.654Z,3.90
2018-06-20T17:54:50.906Z,3.33
2018-06-20T17:57:19.155Z,3.17
2018-06-20T17:59:47.379Z,3.20
2018-06-20T18:02:15.624Z,2.90
2018-06-20T18:04:49.489Z,4.07
2018-06-20T18:07:23.158Z,3.50
2018-06-20T18:09:56.740Z,3.10
2018-06-20T18:12:30.391Z,4.80
2018-06-20T18:15:04.076Z,3.50
2018-06-20T18:17:32.375Z,3.77
2018-06-20T18:20:00.618Z,3.00
2018-06-20T18:22:28.844Z,3.50
2018-06-20T18:24:57.226Z,4.50
2018-06-20T18:27:26.301Z,3.90
2018-06-20T18:29:54.515Z,4.00
2018-06-20T18:32:22.741Z,3.77
2018-06-20T18:34:51.006Z,3.40
2018-06-20T18:37:19.152Z,2.90
2018-06-20T18:39:52.663Z,4.27
2018-06-20T18:42:20.616Z,3.60
2018-06-20T18:44:48.882Z,5.50
2018-06-20T18:47:22.778Z,4.30
2018-06-20T18:49:50.972Z,3.70
2018-06-20T18:52:19.201Z,3.83
2018-06-20T18:54:47.480Z,3.40
2018-06-20T18:57:21.144Z,3.70
2018-06-20T19:01:56.037Z,4.07
2018-06-20T19:04:29.510Z,4.23
2018-06-20T19:07:03.142Z,3.80
2018-06-20T19:09:31.426Z,3.60
2018-06-20T19:11:59.685Z,3.90
2018-06-20T19:14:27.918Z,4.10
2018-06-20T19:16:56.161Z,4.53
2018-06-20T19:19:24.438Z,4.00
2018-06-20T19:21:52.655Z,4.70
2018-06-20T19:24:20.885Z,4.70
2018-06-20T19:26:49.082Z,4.23
2018-06-20T19:29:17.065Z,4.57
2018-06-20T19:31:45.291Z,4.47
2018-06-20T19:34:13.498Z,3.90
2018-06-20T19:36:41.770Z,4.67
2018-06-20T19:39:15.365Z,4.37
2018-06-20T19:41:43.576Z,4.50
2018-06-20T19:44:17.234Z,4.17
2018-06-20T19:46:45.449Z,3.80
2018-06-20T19:49:13.646Z,5.53
2018-06-20T19:51:41.857Z,5.27
2018-06-20T19:54:10.055Z,4.93
2018-06-20T19:56:38.300Z,5.27
2018-06-20T19:59:06.627Z,5.17
2018-06-20T20:01:34.837Z,5.10
2018-06-20T20:04:03.042Z,5.27
2018-06-20T20:06:31.265Z,5.40
2018-06-20T20:08:59.594Z,5.37
2018-06-20T20:11:27.906Z,4.20
2018-06-20T20:13:56.353Z,4.33
2018-06-20T20:16:24.563Z,4.97
2018-06-20T20:18:52.771Z,4.30
2018-06-20T20:21:21.026Z,4.23
2018-06-20T20:23:49.305Z,4.00
2018-06-20T20:26:17.530Z,4.60
2018-06-20T20:28:45.513Z,4.03
2018-06-20T20:31:13.786Z,4.27
2018-06-20T20:33:42.014Z,4.60
2018-06-20T20:36:10.482Z,5.07
2018-06-20T20:38:38.746Z,4.47
2018-06-20T20:41:06.938Z,4.40
2018-06-20T20:43:35.281Z,5.00
2018-06-20T20:46:03.501Z,4.70
2018-06-20T20:48:31.712Z,5.00
2018-06-20T20:50:59.678Z,4.77
2018-06-20T20:53:28.022Z,4.27
2018-06-20T20:55:56.305Z,4.77
2018-06-20T20:58:24.693Z,4.90
2018-06-20T21:00:53.216Z,4.50
2018-06-20T21:03:21.409Z,4.83
2018-06-20T21:05:49.643Z,4.30
2018-06-20T21:08:18.023Z,5.57
2018-06-20T21:10:46.273Z,6.70
2018-06-20T21:13:14.519Z,6.07
2018-06-20T21:15:42.760Z,7.40
2018-06-20T21:18:10.973Z,8.70
2018-06-20T21:20:39.170Z,8.47
2018-06-20T21:23:07.387Z,8.90
2018-06-20T21:25:35.594Z,10.10
2018-06-20T21:28:03.933Z,10.40
2018-06-20T21:30:31.929Z,10.60
2018-06-20T21:33:00.174Z,11.00
2018-06-20T21:35:28.394Z,11.00
2018-06-20T21:37:56.614Z,10.70
2018-06-20T21:40:24.846Z,10.00
2018-06-20T21:42:53.070Z,10.20
2018-06-20T21:45:21.264Z,9.90
2018-06-20T21:47:49.470Z,9.40
2018-06-20T21:50:17.666Z,9.93
2018-06-20T21:52:45.869Z,7.93
2018-06-20T21:55:14.078Z,8.23
2018-06-20T21:57:42.289Z,8.90
2018-06-20T22:00:11.734Z,9.20
2018-06-20T22:02:40.310Z,9.70
2018-06-20T22:05:08.326Z,10.00
2018-06-20T22:07:36.972Z,10.47
2018-06-20T22:10:05.317Z,10.70
2018-06-20T22:12:33.708Z,9.83
2018-06-20T22:15:02.135Z,10.07
2018-06-20T22:17:30.394Z,9.80
2018-06-20T22:19:58.601Z,10.80
2018-06-20T22:22:26.813Z,11.50
2018-06-20T22:24:55.066Z,10.53
2018-06-20T22:27:23.265Z,10.50
2018-06-20T22:29:51.491Z,10.63
2018-06-20T22:32:19.698Z,9.93
2018-06-20T22:34:47.923Z,10.90
2018-06-20T22:37:16.194Z,11.60
2018-06-20T22:39:44.413Z,10.00
2018-06-20T22:42:12.621Z,10.80
2018-06-20T22:44:40.874Z,9.67
2018-06-20T22:47:09.081Z,10.70
2018-06-20T22:49:37.426Z,9.97
2018-06-20T22:52:05.631Z,10.00
2018-06-20T22:54:33.854Z,10.30
2018-06-20T22:57:02.158Z,9.83
2018-06-20T22:59:30.378Z,9.87
2018-06-20T23:01:58.574Z,8.83
2018-06-20T23:04:26.802Z,9.43
2018-06-20T23:06:54.999Z,9.30
2018-06-20T23:09:23.228Z,10.10
2018-06-20T23:11:51.636Z,9.07
2018-06-20T23:14:19.845Z,10.07
2018-06-20T23:16:48.078Z,10.47
2018-06-20T23:19:16.266Z,9.60
2018-06-20T23:21:44.479Z,9.30
2018-06-20T23:24:12.682Z,8.77
2018-06-20T23:26:40.886Z,9.27
2018-06-20T23:29:08.839Z,9.27
2018-06-20T23:31:37.057Z,7.93
2018-06-20T23:34:05.480Z,7.90
2018-06-20T23:36:33.693Z,7.83
2018-06-20T23:39:01.871Z,7.90
2018-06-20T23:41:29.968Z,8.50
2018-06-20T23:43:58.158Z,8.53
2018-06-20T23:46:26.380Z,9.03
2018-06-20T23:48:54.355Z,8.50
2018-06-20T23:51:22.514Z,7.80
2018-06-20T23:53:50.738Z,7.73
2018-06-20T23:56:18.970Z,8.10
2018-06-20T23:58:46.968Z,8.20
